createdAt,value
2023-05-12T00:01:50.091Z,43.24
2023-05-12T00:04:18.118Z,43.29
2023-05-12T00:06:45.952Z,43.39
2023-05-12T00:09:13.832Z,43.44
2023-05-12T00:11:41.774Z,43.50
2023-05-12T00:14:09.624Z,43.46
2023-05-12T00:16:37.649Z,43.52
2023-05-12T00:19:05.599Z,43.57
2023-05-12T00:21:33.678Z,43.65
2023-05-12T00:24:01.869Z,43.67
2023-05-12T00:26:29.721Z,43.68
2023-05-12T00:28:57.480Z,43.60
2023-05-12T00:31:25.328Z,43.79
2023-05-12T00:33:53.224Z,43.82
2023-05-12T00:36:21.464Z,43.87
2023-05-12T00:38:49.805Z,43.83
2023-05-12T00:41:17.586Z,43.89
2023-05-12T00:43:45.542Z,43.93
2023-05-12T00:46:14.165Z,44.08
2023-05-12T00:48:42.269Z,44.10
2023-05-12T00:51:10.907Z,44.02
2023-05-12T00:53:49.189Z,44.17
2023-05-12T00:56:21.891Z,44.14
2023-05-12T00:58:49.764Z,44.19
2023-05-12T01:01:18.435Z,44.26
2023-05-12T01:03:47.853Z,44.23
2023-05-12T01:06:18.104Z,44.21
2023-05-12T01:08:47.457Z,44.35
2023-05-12T01:11:15.762Z,44.35
2023-05-12T01:13:43.767Z,44.47
2023-05-12T01:16:14.103Z,44.47
2023-05-12T01:18:49.497Z,44.44
2023-05-12T01:21:18.116Z,44.56
2023-05-12T01:23:51.924Z,44.55
2023-05-12T01:26:20.712Z,44.65
2023-05-12T01:28:49.208Z,44.66
2023-05-12T01:31:19.556Z,44.74
2023-05-12T01:33:48.687Z,44.77
2023-05-12T01:36:17.136Z,44.78
2023-05-12T01:38:45.231Z,44.79
2023-05-12T01:41:13.281Z,44.88
2023-05-12T01:43:41.301Z,44.98
2023-05-12T01:46:10.956Z,44.97
2023-05-12T01:48:40.362Z,45.04
2023-05-12T01:51:09.069Z,45.03
2023-05-12T01:53:37.619Z,45.10
2023-05-12T01:56:06.012Z,45.15
2023-05-12T01:58:34.764Z,45.14
2023-05-12T02:01:03.389Z,45.21
2023-05-12T02:03:31.425Z,45.15
2023-05-12T02:05:59.555Z,45.21
2023-05-12T02:08:27.424Z,45.26
2023-05-12T02:11:06.102Z,45.31
2023-05-12T02:13:34.954Z,45.39
2023-05-12T02:16:03.287Z,45.42
2023-05-12T02:18:31.600Z,45.42
2023-05-12T02:20:59.773Z,45.50
2023-05-12T02:23:27.666Z,45.63
2023-05-12T02:25:55.426Z,45.63
2023-05-12T02:28:23.466Z,45.72
2023-05-12T02:30:53.000Z,45.73
2023-05-12T02:33:21.547Z,45.77
2023-05-12T02:35:49.298Z,45.80
2023-05-12T02:38:18.246Z,45.86
2023-05-12T02:40:46.545Z,45.90
2023-05-12T02:43:14.756Z,46.06
2023-05-12T02:45:42.930Z,46.08
2023-05-12T02:48:11.445Z,46.12
2023-05-12T02:50:39.249Z,46.24
2023-05-12T02:53:07.343Z,46.25
2023-05-12T02:55:35.228Z,46.33
2023-05-12T02:58:03.181Z,46.41
2023-05-12T03:00:31.222Z,46.39
2023-05-12T03:02:59.147Z,46.42
2023-05-12T03:05:28.031Z,46.45
2023-05-12T03:07:56.002Z,46.51
2023-05-12T03:10:23.975Z,46.56
2023-05-12T03:12:51.842Z,46.66
2023-05-12T03:15:19.937Z,46.70
2023-05-12T03:17:47.709Z,46.72
2023-05-12T03:20:16.772Z,46.89
2023-05-12T03:22:44.669Z,46.93
2023-05-12T03:25:12.546Z,46.97
2023-05-12T03:27:40.789Z,47.05
2023-05-12T03:30:09.053Z,47.16
2023-05-12T03:32:39.416Z,47.26
2023-05-12T03:35:09.540Z,47.31
2023-05-12T03:37:37.664Z,47.41
2023-05-12T03:40:06.637Z,47.45
2023-05-12T03:42:34.601Z,47.58
2023-05-12T03:45:02.497Z,47.56
2023-05-12T03:47:30.560Z,47.81
2023-05-12T03:49:58.813Z,47.78
2023-05-12T03:52:27.172Z,47.87
2023-05-12T03:54:55.043Z,47.93
2023-05-12T03:57:22.955Z,47.93
2023-05-12T03:59:52.476Z,48.06
2023-05-12T04:02:21.189Z,48.05
2023-05-12T04:04:49.236Z,48.03
2023-05-12T04:07:17.075Z,48.07
2023-05-12T04:09:45.286Z,48.09
2023-05-12T04:12:13.369Z,48.30
2023-05-12T04:14:43.156Z,48.36
2023-05-12T04:17:11.424Z,48.38
2023-05-12T04:19:39.326Z,48.34
2023-05-12T04:22:07.223Z,48.45
2023-05-12T04:24:36.507Z,48.56
2023-05-12T04:27:04.788Z,48.65
2023-05-12T04:29:32.641Z,48.69
2023-05-12T04:32:01.000Z,48.71
2023-05-12T04:34:29.576Z,48.79
2023-05-12T04:36:57.827Z,48.82
2023-05-12T04:39:25.780Z,48.86
2023-05-12T04:41:53.767Z,48.96
2023-05-12T04:44:22.341Z,48.96
2023-05-12T04:46:53.535Z,49.05
2023-05-12T04:49:22.311Z,48.95
2023-05-12T04:51:50.483Z,49.05
2023-05-12T04:54:18.465Z,49.10
2023-05-12T04:56:46.520Z,49.07
2023-05-12T04:59:17.894Z,49.07
2023-05-12T05:01:47.190Z,49.15
2023-05-12T05:04:15.839Z,49.11
2023-05-12T05:06:44.004Z,49.15
2023-05-12T05:09:12.020Z,49.16
2023-05-12T05:11:40.091Z,49.24
2023-05-12T05:14:07.886Z,49.17
2023-05-12T05:16:36.817Z,49.27
2023-05-12T05:19:06.664Z,49.22
2023-05-12T05:21:40.210Z,49.32
2023-05-12T05:24:09.231Z,49.34
2023-05-12T05:26:37.756Z,49.28
2023-05-12T05:29:06.457Z,49.36
2023-05-12T05:31:34.889Z,49.37
2023-05-12T05:34:03.500Z,49.42
2023-05-12T05:36:31.797Z,49.36
2023-05-12T05:38:59.990Z,49.33
2023-05-12T05:41:27.843Z,49.37
2023-05-12T05:43:56.151Z,49.47
2023-05-12T05:46:23.952Z,49.41
2023-05-12T05:48:53.147Z,49.43
2023-05-12T05:51:21.293Z,49.44
2023-05-12T05:53:49.250Z,49.49
2023-05-12T05:56:17.975Z,49.53
2023-05-12T05:58:46.435Z,49.46
2023-05-12T06:01:15.403Z,49.39
2023-05-12T06:03:43.660Z,49.39
2023-05-12T06:06:11.678Z,49.43
2023-05-12T06:08:39.850Z,49.33
2023-05-12T06:11:07.758Z,49.33
2023-05-12T06:13:36.397Z,49.29
2023-05-12T06:16:04.405Z,49.34
2023-05-12T06:18:38.040Z,49.23
2023-05-12T06:21:06.263Z,49.27
2023-05-12T06:23:34.165Z,49.26
2023-05-12T06:26:01.994Z,49.28
2023-05-12T06:28:30.004Z,49.15
2023-05-12T06:30:59.941Z,49.29
2023-05-12T06:33:27.820Z,49.28
2023-05-12T06:35:55.688Z,49.38
2023-05-12T06:38:23.433Z,49.24
2023-05-12T06:40:51.314Z,49.36
2023-05-12T06:43:19.582Z,49.34
2023-05-12T06:45:47.581Z,49.37
2023-05-12T06:48:15.352Z,49.36
2023-05-12T06:50:43.273Z,49.48
2023-05-12T06:53:11.151Z,49.44
2023-05-12T06:55:38.982Z,49.30
2023-05-12T06:58:07.021Z,49.17
2023-05-12T07:00:35.543Z,49.12
2023-05-12T07:03:04.286Z,49.12
2023-05-12T07:05:32.256Z,49.10
2023-05-12T07:07:59.961Z,49.02
2023-05-12T07:10:27.736Z,48.97
2023-05-12T07:12:55.589Z,48.84
2023-05-12T07:15:23.615Z,48.87
2023-05-12T07:17:51.716Z,48.84
2023-05-12T07:20:19.574Z,48.87
2023-05-12T07:22:47.723Z,48.81
2023-05-12T07:25:16.171Z,48.78
2023-05-12T07:27:44.351Z,48.84
2023-05-12T07:30:12.599Z,48.73
2023-05-12T07:32:40.454Z,48.77
2023-05-12T07:35:09.261Z,48.61
2023-05-12T07:37:37.097Z,48.63
2023-05-12T07:40:05.359Z,48.69
2023-05-12T07:42:33.848Z,48.54
2023-05-12T07:45:01.627Z,48.63
2023-05-12T07:47:29.623Z,48.59
2023-05-12T07:49:58.183Z,48.49
2023-05-12T07:52:25.963Z,48.50
2023-05-12T07:54:56.337Z,48.53
2023-05-12T07:57:24.374Z,48.46
2023-05-12T07:59:52.220Z,48.45
2023-05-12T08:02:21.000Z,48.48
2023-05-12T08:04:50.525Z,48.50
2023-05-12T08:07:18.311Z,48.48
2023-05-12T08:09:46.271Z,48.46
2023-05-12T08:12:14.123Z,48.42
2023-05-12T08:14:42.011Z,48.28
2023-05-12T08:17:10.771Z,48.41
2023-05-12T08:19:38.781Z,48.34
2023-05-12T08:22:06.660Z,48.25
2023-05-12T08:24:34.458Z,48.13
2023-05-12T08:27:02.201Z,48.18
2023-05-12T08:29:29.977Z,48.04
2023-05-12T08:31:58.699Z,48.04
2023-05-12T08:34:26.710Z,47.97
2023-05-12T08:36:54.985Z,48.00
2023-05-12T08:39:22.965Z,47.75
2023-05-12T08:42:13.429Z,47.82
2023-05-12T08:44:41.672Z,47.63
2023-05-12T08:47:12.024Z,47.56
2023-05-12T08:49:40.596Z,47.51
2023-05-12T08:52:08.962Z,47.51
2023-05-12T08:54:48.599Z,47.39
2023-05-12T08:57:21.768Z,47.40
2023-05-12T08:59:50.029Z,47.40
2023-05-12T09:02:18.874Z,47.26
2023-05-12T09:04:46.867Z,47.34
2023-05-12T09:07:14.796Z,47.27
2023-05-12T09:09:44.306Z,47.18
2023-05-12T09:12:14.978Z,47.12
2023-05-12T09:14:45.018Z,47.17
2023-05-12T09:17:14.093Z,47.12
2023-05-12T09:19:41.951Z,47.06
2023-05-12T09:22:14.782Z,47.08
2023-05-12T09:24:43.107Z,47.02
2023-05-12T09:27:11.632Z,46.93
2023-05-12T09:29:58.590Z,46.83
2023-05-12T09:32:32.350Z,46.78
2023-05-12T09:35:05.322Z,46.81
2023-05-12T09:37:33.972Z,46.78
2023-05-12T09:40:06.754Z,46.65
2023-05-12T09:42:36.772Z,46.51
2023-05-12T09:45:05.375Z,46.28
2023-05-12T09:47:39.767Z,46.23
2023-05-12T09:50:08.520Z,46.18
2023-05-12T09:52:37.510Z,46.20
2023-05-12T09:55:09.851Z,46.00
2023-05-12T09:57:41.314Z,45.95
2023-05-12T10:00:33.202Z,45.88
2023-05-12T10:03:10.573Z,45.71
2023-05-12T10:05:40.042Z,45.63
2023-05-12T10:08:08.475Z,45.68
2023-05-12T10:10:37.077Z,45.58
2023-05-12T10:13:05.781Z,45.51
2023-05-12T10:15:34.586Z,45.43
2023-05-12T10:18:02.682Z,45.38
2023-05-12T10:20:31.015Z,45.37
2023-05-12T10:22:59.638Z,45.29
2023-05-12T10:25:28.281Z,45.27
2023-05-12T10:27:56.597Z,45.18
2023-05-12T10:30:24.626Z,45.07
2023-05-12T10:32:53.095Z,45.04
2023-05-12T10:35:31.798Z,45.01
2023-05-12T10:38:06.532Z,44.91
2023-05-12T10:40:34.357Z,44.91
2023-05-12T10:43:02.382Z,44.83
2023-05-12T10:45:35.982Z,44.72
2023-05-12T10:48:05.967Z,44.67
2023-05-12T10:50:33.838Z,44.71
2023-05-12T10:53:01.622Z,44.57
2023-05-12T10:55:34.109Z,44.56
2023-05-12T10:58:06.543Z,44.32
2023-05-12T11:00:44.651Z,44.36
2023-05-12T11:03:20.517Z,44.29
2023-05-12T11:05:59.164Z,44.21
2023-05-12T11:08:28.465Z,44.24
2023-05-12T11:10:56.616Z,44.27
2023-05-12T11:13:25.008Z,44.24
2023-05-12T11:15:53.260Z,44.20
2023-05-12T11:18:22.149Z,44.27
2023-05-12T11:20:50.974Z,44.21
2023-05-12T11:23:29.618Z,44.18
2023-05-12T11:25:57.753Z,44.16
2023-05-12T11:28:25.663Z,44.18
2023-05-12T11:30:55.201Z,44.12
2023-05-12T11:33:23.776Z,44.08
2023-05-12T11:35:51.751Z,44.15
2023-05-12T11:38:20.028Z,44.11
2023-05-12T11:40:47.866Z,44.12
2023-05-12T11:43:19.761Z,44.01
2023-05-12T11:45:47.639Z,43.96
2023-05-12T11:48:16.637Z,43.94
2023-05-12T11:50:47.677Z,44.01
2023-05-12T11:53:17.249Z,43.95
2023-05-12T11:55:52.304Z,43.92
2023-05-12T11:58:26.592Z,43.93
2023-05-12T12:00:54.905Z,43.74
2023-05-12T12:03:23.648Z,43.71
2023-05-12T12:05:59.737Z,43.75
2023-05-12T12:08:27.636Z,43.74
2023-05-12T12:10:55.825Z,43.72
2023-05-12T12:13:24.569Z,43.79
2023-05-12T12:15:52.997Z,43.76
2023-05-12T12:18:21.126Z,43.80
2023-05-12T12:20:49.054Z,43.79
2023-05-12T12:23:16.850Z,43.82
2023-05-12T12:25:44.840Z,43.85
2023-05-12T12:28:13.063Z,43.81
2023-05-12T12:30:40.955Z,43.84
2023-05-12T12:33:08.921Z,43.88
2023-05-12T12:35:36.893Z,43.87
2023-05-12T12:38:04.676Z,43.79
2023-05-12T12:40:32.546Z,43.86
2023-05-12T12:43:00.420Z,43.84
2023-05-12T12:45:28.283Z,43.87
2023-05-12T12:47:56.616Z,43.87
2023-05-12T12:50:25.851Z,43.91
2023-05-12T12:52:54.997Z,43.84
2023-05-12T12:55:23.425Z,43.89
2023-05-12T12:57:51.433Z,43.82
2023-05-12T13:00:19.747Z,43.92
2023-05-12T13:02:47.964Z,43.90
2023-05-12T13:05:16.583Z,43.85
2023-05-12T13:07:44.391Z,43.75
2023-05-12T13:10:12.350Z,43.78
2023-05-12T13:12:40.508Z,43.63
2023-05-12T13:15:09.203Z,43.57
2023-05-12T13:17:37.223Z,43.78
2023-05-12T13:20:05.667Z,43.84
2023-05-12T13:22:33.623Z,43.93
2023-05-12T13:25:01.861Z,44.02
2023-05-12T13:27:29.644Z,44.06
2023-05-12T13:29:57.620Z,44.12
2023-05-12T13:32:25.487Z,44.19
2023-05-12T13:34:53.198Z,44.19
2023-05-12T13:37:21.555Z,44.25
2023-05-12T13:39:49.442Z,44.15
2023-05-12T13:42:17.453Z,44.08
2023-05-12T13:44:45.253Z,44.11
2023-05-12T13:47:13.187Z,44.09
2023-05-12T13:49:40.973Z,44.19
2023-05-12T13:52:08.697Z,44.17
2023-05-12T13:54:36.751Z,44.14
2023-05-12T13:57:04.748Z,44.23
2023-05-12T13:59:32.830Z,44.27
2023-05-12T14:02:01.295Z,44.23
2023-05-12T14:04:29.392Z,44.34
2023-05-12T14:06:57.660Z,44.31
2023-05-12T14:09:26.256Z,44.32
2023-05-12T14:11:54.485Z,44.36
2023-05-12T14:14:22.202Z,44.43
2023-05-12T14:16:50.220Z,44.50
2023-05-12T14:19:18.307Z,44.47
2023-05-12T14:21:46.145Z,44.46
2023-05-12T14:24:13.906Z,44.48
2023-05-12T14:26:41.648Z,44.49
2023-05-12T14:29:09.478Z,44.60
2023-05-12T14:31:37.273Z,44.61
2023-05-12T14:34:05.324Z,44.66
2023-05-12T14:36:33.091Z,44.65
2023-05-12T14:39:01.089Z,44.79
2023-05-12T14:41:28.992Z,44.82
2023-05-12T14:43:57.772Z,44.83
2023-05-12T14:46:25.936Z,44.82
2023-05-12T14:48:53.959Z,44.92
2023-05-12T14:51:21.898Z,44.92
2023-05-12T14:53:50.110Z,45.02
2023-05-12T14:56:17.985Z,45.04
2023-05-12T14:58:46.264Z,45.04
2023-05-12T15:01:14.235Z,45.08
2023-05-12T15:03:42.270Z,45.05
2023-05-12T15:06:10.474Z,44.96
2023-05-12T15:08:38.476Z,45.06
2023-05-12T15:11:06.362Z,44.99
2023-05-12T15:13:34.222Z,45.09
2023-05-12T15:16:03.126Z,45.14
2023-05-12T15:18:31.061Z,45.14
2023-05-12T15:20:58.967Z,45.12
2023-05-12T15:23:27.276Z,45.20
2023-05-12T15:25:55.054Z,45.18
2023-05-12T15:28:23.085Z,45.39
2023-05-12T15:30:55.078Z,45.29
2023-05-12T15:33:23.372Z,45.26
2023-05-12T15:35:51.318Z,45.34
2023-05-12T15:38:19.475Z,45.37
2023-05-12T15:40:47.201Z,45.35
2023-05-12T15:43:15.834Z,45.41
2023-05-12T15:45:44.426Z,45.33
2023-05-12T15:48:12.206Z,45.28
2023-05-12T15:50:40.328Z,45.18
2023-05-12T15:53:08.375Z,45.05
2023-05-12T15:55:36.333Z,45.03
2023-05-12T15:58:04.453Z,45.01
2023-05-12T16:00:32.513Z,44.97
2023-05-12T16:03:01.962Z,45.01
2023-05-12T16:05:30.896Z,44.90
2023-05-12T16:07:59.021Z,44.89
2023-05-12T16:10:26.945Z,44.95
2023-05-12T16:12:54.813Z,44.97
2023-05-12T16:15:22.773Z,45.04
2023-05-12T16:17:51.640Z,44.96
2023-05-12T16:20:19.693Z,44.97
2023-05-12T16:22:48.746Z,45.06
2023-05-12T16:25:16.717Z,44.92
2023-05-12T16:27:44.577Z,44.91
2023-05-12T16:30:13.397Z,45.03
2023-05-12T16:32:41.832Z,45.09
2023-05-12T16:35:10.260Z,45.13
2023-05-12T16:37:38.642Z,45.26
2023-05-12T16:40:06.872Z,45.38
2023-05-12T16:42:34.823Z,45.47
2023-05-12T16:45:03.087Z,45.61
2023-05-12T16:47:31.479Z,45.56
2023-05-12T16:49:59.815Z,45.61
2023-05-12T16:52:27.896Z,45.70
2023-05-12T16:54:57.194Z,45.74
2023-05-12T16:57:25.114Z,45.85
2023-05-12T16:59:52.896Z,45.87
2023-05-12T17:02:20.909Z,45.85
2023-05-12T17:04:49.190Z,45.89
2023-05-12T17:07:17.001Z,45.95
2023-05-12T17:09:44.728Z,45.98
2023-05-12T17:12:14.264Z,45.97
2023-05-12T17:14:43.161Z,46.09
2023-05-12T17:17:12.373Z,46.08
2023-05-12T17:19:42.057Z,46.10
2023-05-12T17:22:10.328Z,46.20
2023-05-12T17:24:38.239Z,46.15
2023-05-12T17:27:06.363Z,46.25
2023-05-12T17:29:34.216Z,46.35
2023-05-12T17:32:02.223Z,46.34
2023-05-12T17:34:30.291Z,46.37
2023-05-12T17:36:59.229Z,46.37
2023-05-12T17:39:27.051Z,46.52
2023-05-12T17:41:54.907Z,46.46
2023-05-12T17:44:22.730Z,46.61
2023-05-12T17:46:50.732Z,46.62
2023-05-12T17:49:18.682Z,46.59
2023-05-12T17:51:47.051Z,46.76
2023-05-12T17:54:14.894Z,46.77
2023-05-12T17:56:44.788Z,46.86
2023-05-12T17:59:12.723Z,46.89
2023-05-12T18:01:41.327Z,46.89
2023-05-12T18:04:09.313Z,46.94
2023-05-12T18:06:37.154Z,47.00
2023-05-12T18:09:05.417Z,47.03
2023-05-12T18:11:34.385Z,47.03
2023-05-12T18:14:05.893Z,47.13
2023-05-12T18:16:34.100Z,47.24
2023-05-12T18:19:01.990Z,47.19
2023-05-12T18:21:29.926Z,47.23
2023-05-12T18:23:57.777Z,47.38
2023-05-12T18:26:26.865Z,47.31
2023-05-12T18:28:57.337Z,47.34
2023-05-12T18:31:26.786Z,47.49
2023-05-12T18:33:54.720Z,47.50
2023-05-12T18:36:22.675Z,47.57
2023-05-12T18:38:50.569Z,47.64
2023-05-12T18:41:18.899Z,47.66
2023-05-12T18:43:46.773Z,47.70
2023-05-12T18:46:14.709Z,47.76
2023-05-12T18:48:42.590Z,47.74
2023-05-12T18:51:10.947Z,47.78
2023-05-12T18:53:38.917Z,47.88
2023-05-12T18:56:06.840Z,47.88
2023-05-12T18:58:34.619Z,47.97
2023-05-12T19:01:02.406Z,48.07
2023-05-12T19:03:32.266Z,48.05
2023-05-12T19:06:00.202Z,48.10
2023-05-12T19:08:28.171Z,48.23
2023-05-12T19:10:56.007Z,48.26
2023-05-12T19:13:23.833Z,48.32
2023-05-12T19:15:51.643Z,48.39
2023-05-12T19:18:20.066Z,48.48
2023-05-12T19:20:48.359Z,48.61
2023-05-12T19:23:16.306Z,48.49
2023-05-12T19:25:44.100Z,48.65
2023-05-12T19:28:12.219Z,48.65
2023-05-12T19:30:40.033Z,48.79
2023-05-12T19:33:07.947Z,48.88
2023-05-12T19:35:36.302Z,48.88
2023-05-12T19:38:04.169Z,48.99
2023-05-12T19:40:32.247Z,48.96
2023-05-12T19:43:00.348Z,48.99
2023-05-12T19:45:28.829Z,49.13
2023-05-12T19:47:56.972Z,49.19
2023-05-12T19:50:24.982Z,49.17
2023-05-12T19:52:52.724Z,49.21
2023-05-12T19:55:20.903Z,49.29
2023-05-12T19:57:48.963Z,49.37
2023-05-12T20:00:16.994Z,49.35
2023-05-12T20:02:45.114Z,49.46
2023-05-12T20:05:13.306Z,49.45
2023-05-12T20:07:41.103Z,49.47
2023-05-12T20:10:09.159Z,49.53
2023-05-12T20:12:36.993Z,49.52
2023-05-12T20:15:05.127Z,49.58
2023-05-12T20:17:32.963Z,49.64
2023-05-12T20:20:03.621Z,49.67
2023-05-12T20:22:31.775Z,49.76
2023-05-12T20:25:04.330Z,49.75
2023-05-12T20:27:32.612Z,49.75
2023-05-12T20:30:00.582Z,49.80
2023-05-12T20:32:28.695Z,49.81
2023-05-12T20:34:56.607Z,49.93
2023-05-12T20:37:24.478Z,49.98
2023-05-12T20:39:54.021Z,49.88
2023-05-12T20:42:22.008Z,49.93
2023-05-12T20:44:50.124Z,50.12
2023-05-12T20:47:18.688Z,50.17
2023-05-12T20:49:46.635Z,50.25
2023-05-12T20:52:14.640Z,50.27
2023-05-12T20:54:42.562Z,50.38
2023-05-12T20:57:10.797Z,50.47
2023-05-12T20:59:38.615Z,50.40
2023-05-12T21:02:06.962Z,50.46
2023-05-12T21:04:35.037Z,50.55
2023-05-12T21:07:03.237Z,50.62
2023-05-12T21:09:31.143Z,50.60
2023-05-12T21:11:59.202Z,50.65
2023-05-12T21:14:27.653Z,50.64
2023-05-12T21:16:55.672Z,50.62
2023-05-12T21:19:23.421Z,50.65
2023-05-12T21:21:51.291Z,50.68
2023-05-12T21:24:19.169Z,50.79
2023-05-12T21:26:48.151Z,50.80
2023-05-12T21:29:16.568Z,50.82
2023-05-12T21:31:44.575Z,50.79
2023-05-12T21:34:12.534Z,50.77
2023-05-12T21:36:40.626Z,50.88
2023-05-12T21:39:08.531Z,50.87
2023-05-12T21:41:38.416Z,50.93
2023-05-12T21:44:06.886Z,50.92
2023-05-12T21:46:35.787Z,50.99
2023-05-12T21:49:03.563Z,51.04
2023-05-12T21:51:33.211Z,51.06
2023-05-12T21:54:01.114Z,51.02
2023-05-12T21:56:29.031Z,51.18
2023-05-12T21:58:57.248Z,51.07
2023-05-12T22:01:25.012Z,51.12
2023-05-12T22:03:52.936Z,51.15
2023-05-12T22:06:21.287Z,51.23
2023-05-12T22:08:49.166Z,51.24
2023-05-12T22:11:16.945Z,51.22
2023-05-12T22:13:45.111Z,51.23
2023-05-12T22:16:12.978Z,51.25
2023-05-12T22:18:43.573Z,51.35
2023-05-12T22:21:12.302Z,51.36
2023-05-12T22:23:41.879Z,51.51
2023-05-12T22:26:10.437Z,51.41
2023-05-12T22:28:38.490Z,51.54
2023-05-12T22:31:06.392Z,51.67
2023-05-12T22:33:34.416Z,51.66
2023-05-12T22:36:02.396Z,51.66
2023-05-12T22:38:30.585Z,51.77
2023-05-12T22:40:58.564Z,51.74
2023-05-12T22:43:26.474Z,51.83
2023-05-12T22:45:56.526Z,51.95
2023-05-12T22:48:24.481Z,52.00
2023-05-12T22:50:55.623Z,52.05
2023-05-12T22:53:23.395Z,52.07
2023-05-12T22:55:51.164Z,52.05
2023-05-12T22:58:19.050Z,52.21
2023-05-12T23:00:46.942Z,52.23
2023-05-12T23:03:14.750Z,52.32
2023-05-12T23:05:42.582Z,52.37
2023-05-12T23:08:10.411Z,52.43
2023-05-12T23:10:38.302Z,52.49
2023-05-12T23:13:06.226Z,52.49
2023-05-12T23:15:34.083Z,52.54
2023-05-12T23:18:02.161Z,52.66
2023-05-12T23:20:31.741Z,52.73
2023-05-12T23:22:59.553Z,52.73
2023-05-12T23:25:27.443Z,52.77
2023-05-12T23:27:55.986Z,52.85
2023-05-12T23:30:23.975Z,52.75
2023-05-12T23:32:52.154Z,52.81
2023-05-12T23:35:20.049Z,52.82
2023-05-12T23:37:48.321Z,52.88
2023-05-12T23:40:16.227Z,52.84
2023-05-12T23:42:43.990Z,52.89
2023-05-12T23:45:11.878Z,52.90
2023-05-12T23:47:39.670Z,53.01
2023-05-12T23:50:08.476Z,53.07
2023-05-12T23:52:36.325Z,53.08
2023-05-12T23:55:04.367Z,53.14
2023-05-12T23:57:32.197Z,53.19
